Terminal Aerodrome Forecast
Issued by NWS Mt. Holly, NJ

Home | Current Version | Previous Version | Text Only | Print | Product List | Glossary On
Versions: 1 2 3 4 5 6 7 8 9 10 11 12 13 14 15 16 17 18 19 20 21 22 23 24 25 26 27 28 29 30
000
FTUS41 KPHI 200018 AAA
TAFPHL
TAF AMD
KPHL 200018Z 2000/2106 20005KT P6SM -DZ OVC008 WS020/20035KT
     FM200200 20005KT 2SM -DZ BR OVC005 WS020/20035KT
     FM200600 20005KT 1/2SM -DZ FG OVC003 WS020/23035KT
     FM201200 23006KT 2SM -DZ BR BKN004
     FM201400 23007KT P6SM BKN005
     FM201800 23010KT P6SM SCT035
     FM210000 20006KT P6SM SCT110=

USA.gov is the U.S. government's official web portal to all federal, state and local government web resources and services.